Terminal Aerodrome Forecast
Issued by NWS Charleston, WV

Current Version | Previous Version | Graphics & Text | Print | Product List | Glossary On
Versions: 1 2 3 4 5 6 7 8 9 10 11 12 13 14 15 16 17 18 19 20 21 22 23 24
000
FTUS41 KRLX 180500 RRA
TAFPKB
TAF
KPKB 180541Z 1806/1906 26009KT P6SM SCT040
     FM181400 25012G18KT P6SM SKC
     FM181600 25011G20KT P6SM SCT045
     FM182000 25010G18KT P6SM SKC
     FM182300 25009G14KT P6SM BKN040
     FM190300 25008KT P6SM BKN030=

USA.gov is the U.S. government's official web portal to all federal, state and local government web resources and services.